Time;durP1;ratioP1;P1;durP2;ratioP2;P2;SDS_P1;SDS_P2;PMS_P1;PMS_P2;Temp;Humidity;BMP_temperature;BMP_pressure;BME280_temperature;BME280_humidity;BME280_pressure;Samples;Min_cycle;Max_cycle;Signal;HPM_P1;HPM_P2
2022/10/26 00:02:20;;;;;;;15.65;10.88;;;9.40;99.90;;;;;;4956299;28;20051;-85
2022/10/26 00:04:45;;;;;;;16.63;10.45;;;9.30;99.90;;;;;;4951110;28;20039;-86
2022/10/26 00:07:11;;;;;;;17.98;11.13;;;9.30;99.90;;;;;;4955591;28;20043;-85
2022/10/26 00:09:36;;;;;;;16.92;9.85;;;9.30;99.90;;;;;;4933163;28;20092;-86
2022/10/26 00:12:02;;;;;;;18.30;11.32;;;9.30;99.90;;;;;;4956035;28;20097;-86
2022/10/26 00:14:28;;;;;;;17.02;11.15;;;9.20;99.90;;;;;;4937887;28;20107;-85
2022/10/26 00:16:54;;;;;;;15.35;10.50;;;9.20;99.90;;;;;;4969173;28;20129;-85
2022/10/26 00:19:20;;;;;;;17.35;10.48;;;9.20;99.90;;;;;;4969574;28;20043;-85
2022/10/26 00:21:45;;;;;;;17.73;11.10;;;9.10;99.90;;;;;;4919437;28;20038;-85
2022/10/26 00:24:11;;;;;;;20.15;11.45;;;9.20;99.90;;;;;;4939589;28;20035;-86
2022/10/26 00:26:38;;;;;;;16.73;10.57;;;9.10;99.90;;;;;;4967784;28;20038;-85
2022/10/26 00:29:06;;;;;;;18.02;11.50;;;9.10;99.90;;;;;;4969856;28;20033;-85
2022/10/26 00:31:32;;;;;;;17.40;10.65;;;9.10;99.90;;;;;;4953892;28;20042;-86
2022/10/26 00:33:58;;;;;;;17.27;10.57;;;9.10;99.90;;;;;;4955548;28;20038;-85
2022/10/26 00:36:25;;;;;;;14.77;10.85;;;9.10;99.90;;;;;;4955281;28;20030;-85
2022/10/26 00:38:52;;;;;;;18.92;11.82;;;9.10;99.90;;;;;;4968596;28;20496;-85
2022/10/26 00:41:20;;;;;;;17.80;11.23;;;9.10;99.90;;;;;;4951587;28;20035;-85
2022/10/26 00:43:47;;;;;;;14.57;10.55;;;9.00;99.90;;;;;;4972019;28;20118;-85
2022/10/26 00:46:18;;;;;;;17.33;11.50;;;9.00;99.90;;;;;;4953132;28;20104;-85
2022/10/26 00:48:49;;;;;;;16.02;10.68;;;9.00;99.90;;;;;;4951003;28;20113;-85
2022/10/26 00:51:23;;;;;;;14.73;11.05;;;8.90;99.90;;;;;;4968703;28;20039;-85
2022/10/26 00:53:49;;;;;;;15.27;10.43;;;8.90;99.90;;;;;;4952832;28;20553;-85
2022/10/26 00:56:16;;;;;;;18.13;11.52;;;8.90;99.90;;;;;;4953836;28;20473;-85
2022/10/26 00:58:42;;;;;;;19.30;10.85;;;8.90;99.90;;;;;;4955834;28;20073;-85
2022/10/26 01:01:08;;;;;;;17.70;12.15;;;8.90;99.90;;;;;;4970157;28;20035;-85
2022/10/26 01:03:35;;;;;;;23.42;13.48;;;8.80;99.90;;;;;;4937831;28;20042;-84
2022/10/26 01:06:03;;;;;;;18.08;12.43;;;8.80;99.90;;;;;;4955375;28;20179;-84
2022/10/26 01:08:29;;;;;;;22.02;12.73;;;8.90;99.90;;;;;;4973680;28;20564;-84
2022/10/26 01:10:56;;;;;;;18.98;12.57;;;8.90;99.90;;;;;;4962474;28;20206;-84
2022/10/26 01:13:25;;;;;;;17.50;12.35;;;8.90;99.90;;;;;;4971522;28;20047;-85
2022/10/26 01:16:06;;;;;;;21.50;13.45;;;8.90;99.90;;;;;;4976616;28;20047;-85
2022/10/26 01:18:34;;;;;;;19.08;12.55;;;8.90;99.90;;;;;;4976332;28;20038;-84
2022/10/26 01:21:11;;;;;;;22.38;12.27;;;8.90;99.90;;;;;;4953172;28;20105;-85
2022/10/26 01:24:03;;;;;;;19.60;12.48;;;8.90;99.90;;;;;;4985638;28;20061;-85
2022/10/26 01:27:08;;;;;;;19.67;13.37;;;8.90;99.90;;;;;;4969004;28;20027;-85
2022/10/26 01:29:55;;;;;;;19.83;12.80;;;8.90;99.90;;;;;;4972174;28;20337;-85
2022/10/26 01:32:32;;;;;;;18.75;12.40;;;8.90;99.90;;;;;;4968701;28;20043;-85
2022/10/26 01:35:16;;;;;;;16.75;11.80;;;8.80;99.90;;;;;;4952522;28;20089;-85
2022/10/26 01:37:58;;;;;;;21.77;12.73;;;8.80;99.90;;;;;;4958289;28;20139;-85
2022/10/26 01:40:36;;;;;;;22.38;12.80;;;8.70;99.90;;;;;;4976373;28;20098;-85
2022/10/26 01:43:07;;;;;;;18.75;12.35;;;8.70;99.90;;;;;;4972581;28;20038;-84
2022/10/26 01:45:37;;;;;;;17.90;12.25;;;8.70;99.90;;;;;;4953647;28;20043;-85
2022/10/26 01:48:03;;;;;;;16.50;12.20;;;8.70;99.90;;;;;;4988722;28;20038;-85
2022/10/26 01:50:30;;;;;;;21.83;11.63;;;8.70;99.90;;;;;;4937761;28;20039;-85
2022/10/26 01:52:56;;;;;;;19.95;11.80;;;8.60;99.90;;;;;;4974510;28;20107;-85
2022/10/26 01:55:37;;;;;;;19.15;12.63;;;8.60;99.90;;;;;;4939871;28;20046;-85
2022/10/26 01:58:16;;;;;;;22.02;12.18;;;8.60;99.90;;;;;;4950155;28;20086;-85
2022/10/26 02:00:55;;;;;;;18.73;12.30;;;8.60;99.90;;;;;;4953521;28;20074;-85
2022/10/26 02:03:38;;;;;;;22.65;12.77;;;8.50;99.90;;;;;;4970471;28;20054;-85
2022/10/26 02:06:26;;;;;;;20.63;11.88;;;8.50;99.90;;;;;;4955271;28;20030;-85
2022/10/26 02:09:13;;;;;;;16.88;11.35;;;8.50;99.90;;;;;;4964062;28;20506;-85
2022/10/26 02:11:41;;;;;;;19.27;12.35;;;8.50;99.90;;;;;;4959889;28;20078;-85
2022/10/26 02:14:19;;;;;;;17.42;11.85;;;8.40;99.90;;;;;;4972850;28;20034;-85
2022/10/26 02:17:01;;;;;;;16.50;11.05;;;8.40;99.90;;;;;;4969267;28;20512;-85
2022/10/26 02:19:46;;;;;;;17.20;12.48;;;8.30;99.90;;;;;;4972933;28;20053;-85
2022/10/26 02:22:20;;;;;;;17.83;12.18;;;8.30;99.90;;;;;;4956347;28;20114;-85
2022/10/26 02:24:49;;;;;;;17.73;11.38;;;8.20;99.90;;;;;;4955457;28;20125;-85
2022/10/26 02:27:23;;;;;;;19.10;10.73;;;8.20;99.90;;;;;;4962909;28;20046;-85
2022/10/26 02:29:49;;;;;;;18.02;11.30;;;8.20;99.90;;;;;;4958649;28;20035;-85
2022/10/26 02:32:17;;;;;;;16.73;12.05;;;9.00;99.90;;;;;;4956566;28;20035;-85
2022/10/26 02:34:45;;;;;;;19.08;12.98;;;8.10;99.90;;;;;;4957867;28;20450;-85
2022/10/26 02:37:14;;;;;;;20.23;13.70;;;8.10;99.90;;;;;;4955747;28;20038;-84
2022/10/26 02:39:40;;;;;;;23.20;15.48;;;8.10;99.90;;;;;;4984932;28;20039;-85
2022/10/26 02:42:08;;;;;;;27.98;17.02;;;8.20;99.90;;;;;;4939020;28;20504;-85
2022/10/26 02:44:43;;;;;;;36.15;20.73;;;8.80;99.90;;;;;;4955785;28;20442;-85
2022/10/26 02:47:10;;;;;;;34.25;19.20;;;8.30;99.90;;;;;;4970905;28;20069;-85
2022/10/26 02:49:36;;;;;;;39.55;20.25;;;8.60;99.90;;;;;;4956097;28;20081;-86
2022/10/26 02:52:10;;;;;;;34.67;20.48;;;8.70;99.90;;;;;;4956260;28;20039;-85
2022/10/26 02:54:38;;;;;;;36.85;18.38;;;8.60;99.90;;;;;;4970138;28;20541;-85
2022/10/26 02:57:10;;;;;;;29.88;17.30;;;8.50;99.90;;;;;;4982252;28;20063;-85
2022/10/26 02:59:37;;;;;;;27.77;17.77;;;8.70;99.90;;;;;;4988994;28;20519;-84
2022/10/26 03:02:04;;;;;;;32.55;18.98;;;8.60;99.90;;;;;;4936984;28;20681;-85
2022/10/26 03:04:31;;;;;;;28.10;17.05;;;8.70;99.90;;;;;;4987288;28;20039;-85
2022/10/26 03:06:57;;;;;;;34.53;17.77;;;8.60;99.90;;;;;;4971214;28;20047;-85
2022/10/26 03:09:23;;;;;;;31.05;17.90;;;8.60;99.90;;;;;;4984387;28;20039;-85
2022/10/26 03:11:49;;;;;;;33.22;18.83;;;8.60;99.90;;;;;;4938863;28;20031;-85
2022/10/26 03:14:14;;;;;;;30.67;18.17;;;8.60;99.90;;;;;;4974178;28;20393;-85
2022/10/26 03:16:40;;;;;;;31.90;18.92;;;8.60;99.90;;;;;;4971092;28;20344;-85
2022/10/26 03:19:06;;;;;;;31.90;17.65;;;8.60;99.90;;;;;;4954721;28;20034;-85
2022/10/26 03:21:31;;;;;;;27.85;16.73;;;9.20;99.90;;;;;;4925741;28;20102;-85
2022/10/26 03:23:57;;;;;;;27.00;17.70;;;8.50;99.90;;;;;;4968161;28;20035;-85
2022/10/26 03:26:23;;;;;;;26.40;16.95;;;8.60;99.90;;;;;;4970483;28;20054;-85
2022/10/26 03:28:48;;;;;;;29.10;18.02;;;8.60;99.90;;;;;;4957662;28;20097;-84
2022/10/26 03:31:14;;;;;;;29.35;17.13;;;8.60;99.90;;;;;;4943605;28;20042;-85
2022/10/26 03:33:40;;;;;;;28.67;16.50;;;8.60;99.90;;;;;;4953863;28;20043;-85
2022/10/26 03:36:06;;;;;;;32.13;17.95;;;8.60;99.90;;;;;;4944138;28;20460;-84
2022/10/26 03:38:31;;;;;;;24.88;17.73;;;8.60;99.90;;;;;;4921154;28;20043;-85
2022/10/26 03:40:57;;;;;;;28.63;16.38;;;8.60;99.90;;;;;;4961871;28;20078;-85
2022/10/26 03:43:23;;;;;;;29.48;17.75;;;8.60;99.90;;;;;;4956531;28;20043;-85
2022/10/26 03:45:48;;;;;;;29.15;17.05;;;8.60;99.90;;;;;;4948928;28;20098;-85
2022/10/26 03:48:14;;;;;;;30.95;17.77;;;8.60;99.90;;;;;;4943936;28;20121;-85
2022/10/26 03:50:40;;;;;;;27.17;16.98;;;9.30;99.90;;;;;;4953550;28;20038;-85
2022/10/26 03:53:05;;;;;;;25.75;17.00;;;8.60;99.90;;;;;;4942386;28;20641;-85
2022/10/26 03:55:31;;;;;;;27.08;16.27;;;8.50;99.90;;;;;;4938747;28;20116;-85
2022/10/26 03:57:57;;;;;;;26.17;16.17;;;8.50;99.90;;;;;;4949633;28;20039;-85
2022/10/26 04:00:22;;;;;;;27.35;16.75;;;8.50;99.90;;;;;;4950035;28;20500;-85
2022/10/26 04:02:57;;;;;;;28.85;17.67;;;8.70;99.90;;;;;;4941282;28;20074;-85
2022/10/26 04:05:24;;;;;;;28.08;16.60;;;8.50;99.90;;;;;;4953748;28;20440;-85
2022/10/26 04:07:54;;;;;;;25.63;15.93;;;8.50;99.90;;;;;;4966882;28;20047;-84
2022/10/26 04:10:21;;;;;;;28.13;16.73;;;8.50;99.90;;;;;;4971923;28;20038;-85
2022/10/26 04:12:47;;;;;;;24.35;15.30;;;8.50;99.90;;;;;;4956505;28;20177;-85
2022/10/26 04:15:12;;;;;;;23.85;16.20;;;8.50;99.90;;;;;;4956057;28;20074;-85
2022/10/26 04:17:38;;;;;;;30.10;15.50;;;8.40;99.90;;;;;;4952695;28;20046;-85
2022/10/26 04:20:04;;;;;;;23.67;15.95;;;8.40;99.90;;;;;;4955165;28;20466;-85
2022/10/26 04:22:30;;;;;;;23.77;15.30;;;8.40;99.90;;;;;;4935575;28;20066;-85
2022/10/26 04:24:55;;;;;;;28.65;16.88;;;8.40;99.90;;;;;;4923532;28;20054;-86
2022/10/26 04:27:21;;;;;;;25.75;15.57;;;8.40;99.90;;;;;;4919828;28;20071;-85
2022/10/26 04:29:47;;;;;;;21.67;14.23;;;8.40;99.90;;;;;;4954988;28;20039;-85
2022/10/26 04:32:12;;;;;;;21.77;14.30;;;8.30;99.90;;;;;;4968543;28;20043;-84
2022/10/26 04:34:38;;;;;;;25.20;15.45;;;8.30;99.90;;;;;;4969442;28;20042;-85
2022/10/26 04:37:03;;;;;;;24.23;15.38;;;8.40;99.90;;;;;;4933038;28;20416;-85
2022/10/26 04:39:29;;;;;;;24.10;15.18;;;8.30;99.90;;;;;;4956485;28;20050;-84
2022/10/26 04:41:55;;;;;;;25.35;15.10;;;8.40;99.90;;;;;;4953173;28;20039;-85
2022/10/26 04:44:21;;;;;;;28.05;15.23;;;8.40;99.90;;;;;;4934721;28;20035;-85
2022/10/26 04:46:46;;;;;;;24.88;15.85;;;8.40;99.90;;;;;;4952530;28;20460;-85
2022/10/26 04:49:12;;;;;;;26.08;16.58;;;8.40;99.90;;;;;;4943294;28;20043;-86
2022/10/26 04:51:37;;;;;;;28.75;15.57;;;8.40;99.90;;;;;;4940556;28;20031;-85
2022/10/26 04:54:03;;;;;;;31.83;16.08;;;8.50;99.90;;;;;;4941155;28;20038;-85
2022/10/26 04:56:29;;;;;;;22.00;15.57;;;8.50;99.90;;;;;;4938288;28;20043;-85
2022/10/26 04:58:55;;;;;;;27.60;15.88;;;9.10;99.90;;;;;;4944758;28;20053;-86
2022/10/26 05:01:21;;;;;;;25.08;15.77;;;8.60;99.90;;;;;;4938921;28;20047;-85
2022/10/26 05:03:53;;;;;;;31.30;15.45;;;8.70;99.90;;;;;;4942589;28;20043;-85
2022/10/26 05:06:20;;;;;;;25.63;16.33;;;8.80;99.90;;;;;;4990277;28;20031;-85
2022/10/26 05:08:46;;;;;;;26.25;16.02;;;8.90;99.90;;;;;;4958471;28;20050;-85
2022/10/26 05:11:12;;;;;;;24.73;14.50;;;9.00;99.90;;;;;;4974952;28;20041;-86
2022/10/26 05:13:37;;;;;;;24.40;13.85;;;9.10;99.90;;;;;;4957746;28;20042;-85
2022/10/26 05:16:03;;;;;;;24.13;13.80;;;9.10;99.90;;;;;;4957620;28;20122;-85
2022/10/26 05:18:29;;;;;;;26.42;13.93;;;9.20;99.90;;;;;;4969610;28;20040;-85
2022/10/26 05:20:55;;;;;;;22.67;14.15;;;9.20;99.90;;;;;;4957334;28;20038;-85
2022/10/26 05:23:21;;;;;;;21.65;12.88;;;9.20;99.90;;;;;;4965651;28;20038;-85
2022/10/26 05:25:47;;;;;;;20.92;13.13;;;9.30;99.90;;;;;;4929038;28;20104;-85
2022/10/26 05:28:14;;;;;;;29.10;15.15;;;9.30;99.90;;;;;;4945882;28;20039;-85
2022/10/26 05:30:42;;;;;;;26.42;14.43;;;9.30;99.90;;;;;;4953328;28;20053;-85
2022/10/26 05:33:09;;;;;;;21.58;13.90;;;9.30;99.90;;;;;;4951407;28;20039;-85
2022/10/26 05:35:35;;;;;;;24.92;12.90;;;9.30;99.90;;;;;;4950441;28;20061;-84
2022/10/26 05:38:13;;;;;;;22.92;13.73;;;9.30;99.90;;;;;;4928920;28;20074;-84
2022/10/26 05:40:47;;;;;;;25.17;14.48;;;9.20;99.90;;;;;;4963918;28;20536;-84
2022/10/26 05:43:12;;;;;;;21.92;13.40;;;9.20;99.90;;;;;;4940115;28;20126;-84
2022/10/26 05:45:38;;;;;;;23.15;12.30;;;9.20;99.90;;;;;;4956360;28;20035;-83
2022/10/26 05:48:04;;;;;;;25.52;12.88;;;9.20;99.90;;;;;;4927255;28;20116;-85
2022/10/26 05:50:30;;;;;;;23.98;13.13;;;9.20;99.90;;;;;;4944124;28;20105;-85
2022/10/26 05:52:55;;;;;;;24.80;13.20;;;9.20;99.90;;;;;;4949901;28;20043;-85
2022/10/26 05:55:22;;;;;;;22.88;12.48;;;9.20;99.90;;;;;;4964336;28;20126;-85
2022/10/26 05:57:48;;;;;;;19.05;11.15;;;9.20;99.90;;;;;;4945276;28;20440;-85
2022/10/26 06:00:22;;;;;;;21.80;12.60;;;9.20;99.90;;;;;;4945837;28;20045;-86
2022/10/26 06:02:58;;;;;;;28.45;13.02;;;9.20;99.90;;;;;;4959015;28;20117;-87
2022/10/26 06:05:28;;;;;;;22.02;11.50;;;9.20;99.90;;;;;;4960828;28;20054;-86
2022/10/26 06:07:54;;;;;;;19.13;11.75;;;9.20;99.90;;;;;;4946897;28;20577;-86
2022/10/26 06:10:20;;;;;;;21.65;13.10;;;9.30;99.90;;;;;;4947469;28;20497;-85
2022/10/26 06:12:46;;;;;;;18.52;11.57;;;9.30;99.90;;;;;;4962044;28;20046;-85
2022/10/26 06:15:19;;;;;;;18.27;11.45;;;9.30;99.90;;;;;;4972952;28;20046;-85
2022/10/26 06:18:04;;;;;;;21.45;11.80;;;9.30;99.90;;;;;;4966970;28;20105;-84
2022/10/26 06:21:22;;;;;;;19.67;11.27;;;9.30;99.90;;;;;;4943909;28;20445;-85
2022/10/26 06:24:03;;;;;;;16.95;10.25;;;9.30;99.90;;;;;;4941029;28;20389;-85
2022/10/26 06:26:44;;;;;;;17.95;10.48;;;9.40;99.90;;;;;;4949415;28;20050;-87
2022/10/26 06:29:36;;;;;;;20.17;10.05;;;9.40;99.90;;;;;;4941752;28;20070;-86
2022/10/26 06:32:02;;;;;;;18.50;9.90;;;9.40;99.90;;;;;;4921392;28;20230;-87
2022/10/26 06:34:37;;;;;;;49.90;11.30;;;9.40;99.90;;;;;;4950224;28;20045;-85
2022/10/26 06:37:03;;;;;;;16.80;9.63;;;9.50;99.90;;;;;;4940760;28;20057;-86
2022/10/26 06:39:34;;;;;;;17.00;9.10;;;9.20;99.90;;;;;;4939385;28;20576;-85
2022/10/26 06:42:00;;;;;;;15.85;8.98;;;9.50;99.90;;;;;;4960979;28;20078;-84
2022/10/26 06:44:26;;;;;;;19.52;9.82;;;9.60;99.90;;;;;;4915063;28;20094;-85
2022/10/26 06:47:30;;;;;;;17.08;9.35;;;9.60;99.90;;;;;;4943519;28;20031;-86
2022/10/26 06:50:30;;;;;;;16.23;8.75;;;9.60;99.90;;;;;;4938077;28;20039;-85
2022/10/26 06:53:34;;;;;;;18.15;10.13;;;9.70;99.90;;;;;;4951518;28;20047;-85
2022/10/26 06:56:03;;;;;;;20.27;9.32;;;9.70;99.90;;;;;;4930614;28;20043;-85
2022/10/26 06:58:36;;;;;;;15.02;8.50;;;9.70;99.90;;;;;;4938287;28;20039;-86
2022/10/26 07:01:05;;;;;;;15.02;8.43;;;9.70;99.90;;;;;;4957796;28;21722;-86
2022/10/26 07:03:30;;;;;;;17.85;9.30;;;9.70;99.90;;;;;;4930456;28;20137;-86
2022/10/26 07:05:56;;;;;;;14.80;8.63;;;9.80;99.90;;;;;;4925898;28;20119;-86
2022/10/26 07:08:22;;;;;;;15.20;8.88;;;9.80;99.90;;;;;;4897575;28;20517;-86
2022/10/26 07:10:48;;;;;;;13.43;9.05;;;9.80;99.90;;;;;;4923988;28;20035;-86
2022/10/26 07:13:14;;;;;;;14.48;8.15;;;10.40;99.90;;;;;;4930578;28;20489;-85
2022/10/26 07:15:41;;;;;;;13.05;8.00;;;9.90;99.90;;;;;;4911402;28;20049;-85
2022/10/26 07:18:08;;;;;;;19.85;9.50;;;9.80;99.90;;;;;;4946856;28;20114;-85
2022/10/26 07:20:38;;;;;;;14.80;9.10;;;9.90;99.90;;;;;;4930098;28;20030;-86
2022/10/26 07:23:05;;;;;;;14.90;7.60;;;10.00;99.90;;;;;;4914664;28;20044;-86
2022/10/26 07:25:32;;;;;;;14.20;8.45;;;9.90;99.90;;;;;;4914260;28;20031;-85
2022/10/26 07:27:58;;;;;;;12.95;8.25;;;10.00;99.90;;;;;;4929688;28;20062;-86
2022/10/26 07:30:25;;;;;;;15.98;8.43;;;10.00;99.90;;;;;;4936608;28;20035;-86
2022/10/26 07:33:02;;;;;;;15.30;8.00;;;10.00;99.90;;;;;;4912792;28;20065;-87
2022/10/26 07:35:27;;;;;;;17.48;8.57;;;10.00;99.90;;;;;;4926344;28;20039;-86
2022/10/26 07:38:00;;;;;;;16.67;8.45;;;10.00;99.90;;;;;;4927620;28;20120;-86
2022/10/26 07:40:26;;;;;;;;;;;10.00;99.90;;;;;;4929181;28;20050;-86
2022/10/26 07:42:55;;;;;;;13.48;8.00;;;10.00;99.90;;;;;;4929462;28;19969;-87
2022/10/26 07:45:20;;;;;;;13.55;8.13;;;10.00;99.90;;;;;;4929023;28;20038;-86
2022/10/26 07:47:48;;;;;;;10.90;7.28;;;10.10;99.90;;;;;;4928763;28;20448;-86
2022/10/26 07:50:13;;;;;;;13.10;7.65;;;10.10;99.90;;;;;;4923446;28;20051;-84
2022/10/26 07:52:40;;;;;;;15.55;8.25;;;10.20;99.90;;;;;;4916062;28;20033;-84
2022/10/26 07:55:10;;;;;;;12.68;7.65;;;10.20;99.90;;;;;;4919458;28;20404;-82
2022/10/26 07:57:36;;;;;;;15.15;7.43;;;10.30;99.90;;;;;;4912986;28;20047;-85
2022/10/26 08:00:04;;;;;;;10.18;6.68;;;10.50;99.90;;;;;;4920818;28;20031;-85
2022/10/26 08:02:30;;;;;;;15.50;7.72;;;10.40;99.90;;;;;;4928291;28;20117;-85
2022/10/26 08:04:56;;;;;;;12.60;6.72;;;10.50;99.90;;;;;;4943717;28;20050;-86
2022/10/26 08:07:22;;;;;;;11.35;6.22;;;10.60;99.90;;;;;;4927654;28;20047;-86
2022/10/26 08:09:47;;;;;;;14.80;6.60;;;10.60;99.90;;;;;;4932047;28;20035;-87
2022/10/26 08:12:15;;;;;;;12.95;7.35;;;10.70;99.90;;;;;;4974625;28;20046;-88
2022/10/26 08:14:41;;;;;;;14.95;7.20;;;10.80;99.90;;;;;;4950453;28;20564;-87
2022/10/26 08:17:07;;;;;;;13.27;6.80;;;10.90;99.90;;;;;;4932292;28;20039;-87
2022/10/26 08:19:33;;;;;;;13.05;6.30;;;11.10;99.90;;;;;;4955007;28;20038;-86
2022/10/26 08:21:59;;;;;;;13.05;6.80;;;11.10;99.90;;;;;;4946008;28;20054;-89
2022/10/26 08:24:25;;;;;;;10.50;6.13;;;11.20;99.90;;;;;;4915624;28;20042;-89
2022/10/26 08:26:53;;;;;;;9.60;6.10;;;11.20;99.90;;;;;;4946824;28;20877;-89
2022/10/26 08:29:19;;;;;;;11.32;5.70;;;11.30;99.90;;;;;;4931889;28;20058;-89
2022/10/26 08:31:47;;;;;;;9.85;6.15;;;10.90;99.90;;;;;;4944741;28;20039;-90
2022/10/26 08:34:13;;;;;;;8.55;5.68;;;11.40;99.90;;;;;;4946291;28;20118;-89
2022/10/26 08:36:39;;;;;;;10.23;6.20;;;11.50;99.90;;;;;;4969828;28;20117;-89
2022/10/26 08:39:05;;;;;;;9.57;6.03;;;11.60;99.90;;;;;;4920047;28;20039;-88
2022/10/26 08:41:42;;;;;;;8.52;6.05;;;11.50;99.90;;;;;;4926370;28;20034;-89
2022/10/26 08:44:24;;;;;;;10.80;6.10;;;11.80;99.90;;;;;;4964371;28;20042;-88
2022/10/26 08:46:55;;;;;;;10.63;5.68;;;12.00;99.90;;;;;;4946313;28;20066;-88
2022/10/26 08:49:26;;;;;;;10.63;5.18;;;12.20;99.90;;;;;;4942086;28;20043;-87
2022/10/26 08:51:56;;;;;;;6.68;5.10;;;12.30;99.90;;;;;;4953691;28;20113;-87
2022/10/26 08:54:56;;;;;;;6.90;5.03;;;12.40;99.90;;;;;;4942013;28;20493;-87
2022/10/26 08:57:30;;;;;;;10.77;5.03;;;12.50;99.90;;;;;;4923951;28;20130;-86
2022/10/26 09:00:05;;;;;;;8.73;5.13;;;12.60;99.90;;;;;;4963720;28;20074;-86
2022/10/26 09:02:31;;;;;;;7.47;4.40;;;12.70;99.90;;;;;;4948511;28;20055;-86
2022/10/26 09:04:58;;;;;;;6.38;4.68;;;12.60;99.90;;;;;;4919239;28;20046;-88
2022/10/26 09:07:37;;;;;;;9.85;4.45;;;12.70;99.90;;;;;;4940456;28;20159;-87
2022/10/26 09:10:08;;;;;;;9.65;5.57;;;12.70;99.90;;;;;;4953360;28;20050;-85
2022/10/26 09:12:52;;;;;;;6.43;4.15;;;12.80;99.90;;;;;;4942596;28;20047;-86
2022/10/26 09:15:46;;;;;;;7.82;4.00;;;12.90;99.90;;;;;;4949800;28;20051;-86
2022/10/26 09:18:24;;;;;;;7.68;5.00;;;13.10;99.90;;;;;;4965516;28;20074;-86
2022/10/26 09:21:25;;;;;;;6.95;4.15;;;13.30;99.90;;;;;;4948578;28;20035;-86
2022/10/26 09:24:11;;;;;;;7.05;4.13;;;13.40;99.90;;;;;;4888203;28;20044;-88
2022/10/26 09:27:06;;;;;;;8.85;4.45;;;13.60;99.90;;;;;;4963258;28;20035;-86
2022/10/26 09:29:39;;;;;;;7.70;4.38;;;13.80;99.90;;;;;;4940049;28;20934;-87
2022/10/26 09:32:18;;;;;;;6.90;4.00;;;13.90;99.90;;;;;;4954773;28;20543;-87
2022/10/26 09:35:00;;;;;;;7.38;4.13;;;14.00;99.90;;;;;;4968709;28;20118;-87
2022/10/26 09:37:31;;;;;;;5.65;3.70;;;14.10;99.90;;;;;;4948534;28;20043;-87
2022/10/26 09:40:26;;;;;;;7.85;4.28;;;14.10;99.90;;;;;;4958497;28;20050;-87
2022/10/26 09:43:09;;;;;;;9.18;5.05;;;14.10;99.90;;;;;;4940252;28;20036;-87
2022/10/26 09:45:38;;;;;;;8.45;4.65;;;14.10;99.90;;;;;;4952164;28;20074;-91
2022/10/26 09:48:12;;;;;;;8.25;4.35;;;14.10;99.90;;;;;;4944725;28;20042;-91
2022/10/26 09:50:43;;;;;;;8.15;4.00;;;14.10;99.90;;;;;;4939083;28;20058;-92
2022/10/26 09:53:09;;;;;;;11.63;3.78;;;14.20;99.90;;;;;;4941439;28;20566;-91
2022/10/26 09:55:45;;;;;;;10.82;4.47;;;14.20;99.90;;;;;;4955484;28;20725;-93
2022/10/26 09:58:20;;;;;;;7.35;3.88;;;14.30;99.90;;;;;;4954454;28;20132;-96
2022/10/26 10:00:46;;;;;;;6.68;4.20;;;14.30;99.90;;;;;;4947998;28;20034;-94
2022/10/26 10:03:23;;;;;;;6.55;4.28;;;14.40;99.90;;;;;;4928343;28;20536;-84
2022/10/26 10:05:49;;;;;;;8.43;3.95;;;14.50;99.90;;;;;;4949246;28;20031;-88
2022/10/26 10:08:22;;;;;;;11.18;4.22;;;14.70;99.90;;;;;;4932099;28;20133;-89
2022/10/26 10:11:12;;;;;;;7.78;3.88;;;14.80;99.90;;;;;;4954318;28;20409;-90
2022/10/26 10:13:43;;;;;;;8.52;3.80;;;14.90;99.90;;;;;;4925927;28;20409;-88
2022/10/26 10:16:27;;;;;;;11.48;3.75;;;14.90;99.90;;;;;;4958049;28;20038;-89
2022/10/26 10:18:55;;;;;;;5.80;3.55;;;15.00;99.90;;;;;;4928192;28;20109;-90
2022/10/26 10:21:32;;;;;;;8.15;3.53;;;15.10;99.90;;;;;;4926097;28;20043;-90
2022/10/26 10:23:58;;;;;;;6.15;3.42;;;15.10;99.90;;;;;;4940754;28;20070;-87
2022/10/26 10:26:24;;;;;;;7.05;3.53;;;15.20;99.90;;;;;;4923262;28;20118;-89
2022/10/26 10:29:02;;;;;;;9.25;3.88;;;15.20;99.90;;;;;;4936235;28;20134;-89
2022/10/26 10:31:32;;;;;;;10.27;3.35;;;15.30;99.90;;;;;;4941574;28;20046;-90
2022/10/26 10:33:59;;;;;;;6.85;4.03;;;15.30;99.90;;;;;;4920858;28;20380;-89
2022/10/26 10:36:29;;;;;;;9.70;4.00;;;15.30;99.90;;;;;;4955016;28;20042;-89
2022/10/26 10:38:55;;;;;;;5.22;3.10;;;15.40;99.90;;;;;;4947281;28;20046;-88
2022/10/26 10:41:36;;;;;;;11.60;3.65;;;15.50;99.90;;;;;;4949924;28;20031;-89
2022/10/26 10:44:16;;;;;;;5.50;3.60;;;15.70;99.90;;;;;;4951815;28;20125;-89
2022/10/26 10:46:42;;;;;;;8.80;3.55;;;15.90;99.90;;;;;;4950222;28;20121;-89
2022/10/26 10:49:20;;;;;;;8.30;3.63;;;16.00;99.90;;;;;;4918340;28;20174;-90
2022/10/26 10:51:47;;;;;;;9.13;3.90;;;16.00;99.90;;;;;;4943548;28;20042;-89
2022/10/26 10:54:39;;;;;;;7.05;3.78;;;16.10;99.90;;;;;;4919295;28;20042;-88
2022/10/26 10:57:38;;;;;;;5.10;3.50;;;16.20;99.90;;;;;;4965000;28;20051;-89
2022/10/26 11:00:07;;;;;;;7.20;3.80;;;16.20;99.90;;;;;;4941145;28;20038;-89
2022/10/26 11:02:51;;;;;;;7.25;3.85;;;16.40;99.90;;;;;;4948688;28;20492;-90
2022/10/26 11:05:21;;;;;;;5.63;3.38;;;16.50;99.90;;;;;;4942189;28;20544;-90
2022/10/26 11:08:00;;;;;;;7.03;3.03;;;16.60;99.90;;;;;;4946717;28;20081;-91
2022/10/26 11:10:31;;;;;;;9.57;3.50;;;16.70;99.90;;;;;;4952079;28;20042;-90
2022/10/26 11:13:00;;;;;;;6.23;3.27;;;16.90;99.90;;;;;;4952987;28;20102;-90
2022/10/26 11:15:31;;;;;;;6.72;3.45;;;17.00;99.90;;;;;;4948386;28;20093;-92
2022/10/26 11:18:06;;;;;;;7.32;3.35;;;17.10;99.90;;;;;;4946361;28;20046;-91
2022/10/26 11:20:37;;;;;;;5.93;3.35;;;17.20;99.90;;;;;;4948712;28;20077;-88
2022/10/26 11:23:28;;;;;;;7.10;2.83;;;17.40;99.90;;;;;;4940060;28;20035;-90
2022/10/26 11:26:11;;;;;;;12.15;3.88;;;17.40;99.90;;;;;;4944212;28;20101;-93
2022/10/26 11:28:48;;;;;;;8.82;3.78;;;17.60;99.90;;;;;;4951922;28;20038;-90
2022/10/26 11:31:20;;;;;;;12.02;3.50;;;17.70;99.90;;;;;;4940254;28;20038;-93
2022/10/26 11:33:58;;;;;;;6.03;3.42;;;17.70;99.90;;;;;;4974292;28;20050;-96
2022/10/26 11:36:25;;;;;;;8.55;3.28;;;17.80;99.90;;;;;;4984952;28;20558;-96
2022/10/26 11:39:00;;;;;;;6.35;2.83;;;18.00;99.90;;;;;;4946507;29;20540;-96
2022/10/26 11:41:48;;;;;;;8.85;2.80;;;18.10;99.90;;;;;;4944053;29;20046;-93
2022/10/26 11:44:49;;;;;;;5.85;2.63;;;18.10;99.90;;;;;;4955944;28;20093;-94
2022/10/26 11:47:24;;;;;;;7.35;3.13;;;18.10;99.90;;;;;;4936409;28;20053;-92
2022/10/26 11:50:03;;;;;;;5.25;3.10;;;18.20;99.90;;;;;;4950546;28;20073;-92
2022/10/26 11:52:39;;;;;;;8.70;3.20;;;18.20;99.90;;;;;;4954584;28;20043;-93
2022/10/26 11:55:09;;;;;;;6.63;3.15;;;18.30;99.90;;;;;;4956765;28;20109;-94
2022/10/26 11:57:36;;;;;;;6.50;2.92;;;18.30;99.90;;;;;;4957676;28;20104;-94
2022/10/26 12:00:16;;;;;;;6.65;3.03;;;18.30;99.90;;;;;;4948397;28;20043;-93
2022/10/26 12:02:48;;;;;;;5.20;2.83;;;18.40;99.90;;;;;;4963062;28;20070;-94
2022/10/26 12:05:14;;;;;;;7.13;3.33;;;18.40;99.90;;;;;;4953372;28;20042;-95
2022/10/26 12:07:42;;;;;;;7.97;2.97;;;18.40;99.90;;;;;;4957367;28;20096;-94
2022/10/26 12:10:24;;;;;;;5.85;3.20;;;18.50;99.90;;;;;;4955744;28;20050;-94
2022/10/26 12:13:12;;;;;;;4.63;3.17;;;18.50;99.90;;;;;;4944481;28;20051;-94
2022/10/26 12:15:51;;;;;;;9.35;3.05;;;18.60;99.90;;;;;;4945969;28;20081;-92
2022/10/26 12:18:42;;;;;;;5.32;3.10;;;18.50;99.90;;;;;;4953687;28;20401;-93
2022/10/26 12:21:09;;;;;;;7.22;3.35;;;18.50;99.90;;;;;;4947655;28;20576;-93
2022/10/26 12:23:52;;;;;;;9.90;3.25;;;18.50;99.90;;;;;;4927725;28;20042;-92
2022/10/26 12:26:27;;;;;;;9.15;3.40;;;18.50;99.90;;;;;;4950453;28;20053;-94
2022/10/26 12:29:01;;;;;;;4.90;2.95;;;18.50;99.90;;;;;;4949633;28;20074;-92
2022/10/26 12:31:36;;;;;;;6.40;3.40;;;18.60;99.90;;;;;;4981823;28;20134;-94
2022/10/26 12:34:30;;;;;;;8.85;3.30;;;18.50;99.90;;;;;;4955773;28;20035;-93
2022/10/26 12:36:56;;;;;;;8.90;3.30;;;18.40;99.90;;;;;;4935598;28;20109;-93
2022/10/26 12:39:32;;;;;;;7.28;3.10;;;18.30;99.90;;;;;;4949314;28;20032;-92
2022/10/26 12:42:24;;;;;;;7.63;3.60;;;18.30;99.90;;;;;;4943508;28;20035;-92
2022/10/26 12:44:52;;;;;;;6.10;3.40;;;18.20;99.90;;;;;;4955121;28;20122;-92
2022/10/26 12:47:27;;;;;;;6.03;3.13;;;18.20;99.90;;;;;;4947074;28;20050;-91
2022/10/26 12:49:59;;;;;;;8.10;3.42;;;18.30;99.90;;;;;;4958107;28;20047;-92
2022/10/26 12:52:48;;;;;;;10.38;3.30;;;18.50;99.90;;;;;;4976701;28;20039;-92
2022/10/26 12:55:39;;;;;;;5.85;3.00;;;18.60;99.90;;;;;;4947580;28;20055;-92
2022/10/26 12:58:36;;;;;;;10.63;3.10;;;18.70;99.90;;;;;;4966849;28;20101;-92
2022/10/26 13:01:02;;;;;;;6.05;3.20;;;18.80;99.90;;;;;;4952036;28;20035;-92
2022/10/26 13:03:49;;;;;;;8.13;3.35;;;18.80;99.90;;;;;;4946984;28;20062;-93
2022/10/26 13:06:43;;;;;;;8.23;3.22;;;18.90;99.90;;;;;;4944976;28;20054;-94